Tarpon Springs, Florida
Current Conditions -  °F | °C
As of 2:15 PM on Sunday 23 Nov 2014 (Local Time) from KCLW Reporting Station
Overcast Overcast  
Wind Chill: 81°   Ceiling: 1900
Heat Index: 85°   Visibility: 10mi
Dew Point: 72°   Wind: 22mph
Humidity: 74%   Direction: 180°S
Pressure: 29.87"   Gusts: 31mph
Location:  28.15°N, 82.75°W
Report Text: KCLW 231915Z AUTO 18019G27KT 10SM OVC019 27/22 A2987 RMK AO2
Loading
Personal Weather Stations






























Interactive Weather Map New forecast layout! Learn more

10-Day Weather Forecast

Advertisements
Track Severe Weather on mobile